Time;durP1;ratioP1;P1;durP2;ratioP2;P2;SDS_P1;SDS_P2;PMS_P1;PMS_P2;Temp;Humidity;BMP_temperature;BMP_pressure;BME280_temperature;BME280_humidity;BME280_pressure;Samples;Min_cycle;Max_cycle;Signal;HPM_P1;HPM_P2
2024/01/14 00:01:22;;;;;;;17.63;10.05;;;13.90;45.60;;;;;;5151648;27;45308;-51
2024/01/14 00:03:49;;;;;;;17.20;10.63;;;13.90;45.40;;;;;;5150943;27;45255;-51
2024/01/14 00:06:16;;;;;;;18.60;10.85;;;13.80;45.40;;;;;;5151259;27;46382;-51
2024/01/14 00:08:42;;;;;;;15.75;9.55;;;13.90;45.50;;;;;;5150196;27;45157;-51
2024/01/14 00:11:09;;;;;;;19.83;11.70;;;13.90;45.40;;;;;;5152736;27;45198;-51
2024/01/14 00:13:37;;;;;;;17.63;9.88;;;13.90;45.40;;;;;;5150945;27;45268;-50
2024/01/14 00:16:05;;;;;;;19.40;11.23;;;13.90;45.40;;;;;;5151232;27;47068;-51
2024/01/14 00:18:31;;;;;;;16.77;10.00;;;13.90;45.50;;;;;;5152000;27;45234;-51
2024/01/14 00:20:58;;;;;;;18.40;10.75;;;13.90;45.50;;;;;;5150848;27;45231;-51
2024/01/14 00:23:25;;;;;;;16.15;10.18;;;13.90;45.50;;;;;;5150246;27;45341;-51
2024/01/14 00:25:51;;;;;;;15.57;9.82;;;13.90;45.60;;;;;;5152115;27;47953;-51
2024/01/14 00:28:19;;;;;;;17.27;10.15;;;13.80;45.50;;;;;;5151953;27;45569;-50
2024/01/14 00:30:47;;;;;;;18.50;10.15;;;13.80;45.60;;;;;;5150676;27;45475;-51
2024/01/14 00:33:14;;;;;;;19.13;10.13;;;13.80;45.80;;;;;;5150851;27;45162;-51
2024/01/14 00:35:40;;;;;;;17.60;10.80;;;13.80;45.80;;;;;;5151784;27;47595;-51
2024/01/14 00:38:07;;;;;;;16.25;9.88;;;13.80;45.90;;;;;;5147733;27;45367;-51
2024/01/14 00:40:34;;;;;;;17.25;10.18;;;13.80;45.90;;;;;;5150300;27;45399;-51
2024/01/14 00:43:02;;;;;;;18.17;10.68;;;13.80;45.90;;;;;;5152065;27;45303;-51
2024/01/14 00:45:29;;;;;;;18.38;10.27;;;13.80;45.80;;;;;;5151490;27;48325;-51
2024/01/14 00:47:57;;;;;;;17.65;9.90;;;13.80;45.90;;;;;;5148462;27;45305;-51
2024/01/14 00:50:24;;;;;;;18.25;11.02;;;13.80;45.90;;;;;;5152968;27;45261;-51
2024/01/14 00:52:51;;;;;;;15.75;10.07;;;13.80;45.90;;;;;;5150975;27;45875;-51
2024/01/14 00:55:18;;;;;;;17.23;9.88;;;13.80;46.00;;;;;;5148987;27;45432;-51
2024/01/14 00:57:45;;;;;;;15.93;10.43;;;13.70;45.80;;;;;;5151225;27;45354;-51
2024/01/14 01:00:12;;;;;;;17.35;10.57;;;13.80;46.00;;;;;;5150271;27;45254;-50
2024/01/14 01:02:39;;;;;;;17.67;10.50;;;13.80;45.90;;;;;;5148976;27;45374;-51
2024/01/14 01:05:08;;;;;;;18.05;10.00;;;13.80;46.00;;;;;;5151853;27;45272;-51
2024/01/14 01:07:35;;;;;;;19.10;10.73;;;13.80;46.00;;;;;;5145101;27;45356;-51
2024/01/14 01:10:02;;;;;;;18.30;10.98;;;13.80;46.10;;;;;;5149058;27;45388;-51
2024/01/14 01:12:29;;;;;;;17.48;10.73;;;13.80;45.90;;;;;;5151228;27;45315;-51
2024/01/14 01:14:56;;;;;;;17.33;10.40;;;13.90;45.80;;;;;;5149652;27;46234;-50
2024/01/14 01:17:23;;;;;;;20.15;10.95;;;14.00;45.60;;;;;;5148215;27;45176;-51
2024/01/14 01:19:50;;;;;;;17.95;10.35;;;14.00;45.60;;;;;;5151458;27;45267;-51
2024/01/14 01:22:18;;;;;;;19.50;10.05;;;14.10;45.70;;;;;;5150751;27;45253;-51
2024/01/14 01:24:45;;;;;;;16.95;10.80;;;14.10;45.70;;;;;;5148672;27;46437;-51
2024/01/14 01:27:12;;;;;;;16.67;10.07;;;14.10;45.60;;;;;;5152935;27;45174;-51
2024/01/14 01:29:39;;;;;;;17.73;10.95;;;14.10;45.60;;;;;;5152264;27;45241;-50
2024/01/14 01:32:06;;;;;;;17.17;10.32;;;14.10;45.50;;;;;;5152532;27;45366;-51
2024/01/14 01:34:32;;;;;;;18.25;10.75;;;14.10;46.60;;;;;;5149375;27;46538;-51
2024/01/14 01:36:59;;;;;;;17.05;10.25;;;14.10;45.50;;;;;;5145836;27;45460;-50
2024/01/14 01:39:27;;;;;;;16.73;10.50;;;14.10;45.40;;;;;;5149944;27;45309;-50
2024/01/14 01:41:54;;;;;;;18.45;10.23;;;14.10;45.40;;;;;;5153164;27;45343;-51
2024/01/14 01:44:21;;;;;;;19.05;10.60;;;14.10;45.50;;;;;;5156910;27;46557;-51
2024/01/14 01:46:49;;;;;;;17.45;10.82;;;14.10;45.50;;;;;;5149303;27;45195;-50
2024/01/14 01:49:16;;;;;;;18.52;10.13;;;14.10;45.50;;;;;;5150073;27;45655;-51
2024/01/14 01:51:47;;;;;;;20.63;11.35;;;14.10;45.50;;;;;;5152342;27;45445;-51
2024/01/14 01:54:16;;;;;;;18.23;11.25;;;14.10;45.40;;;;;;5147699;27;45648;-51
2024/01/14 01:56:44;;;;;;;19.25;10.32;;;14.10;45.50;;;;;;5151629;27;45204;-51
2024/01/14 01:59:13;;;;;;;18.15;10.98;;;14.10;45.50;;;;;;5153268;27;45224;-50
2024/01/14 02:01:40;;;;;;;18.40;10.77;;;14.10;45.40;;;;;;5149973;27;45182;-50
2024/01/14 02:04:08;;;;;;;18.98;10.73;;;14.10;45.50;;;;;;5151899;27;46302;-50
2024/01/14 02:06:38;;;;;;;18.20;11.15;;;14.10;45.50;;;;;;5150474;27;45316;-51
2024/01/14 02:09:07;;;;;;;17.70;11.30;;;14.10;45.50;;;;;;5149777;27;45179;-51
2024/01/14 02:11:33;;;;;;;20.35;11.55;;;14.10;45.50;;;;;;5151378;27;45172;-51
2024/01/14 02:14:02;;;;;;;16.65;10.40;;;14.10;45.70;;;;;;5149749;27;47449;-51
2024/01/14 02:16:28;;;;;;;18.27;10.38;;;14.10;45.70;;;;;;5150072;27;45393;-51
2024/01/14 02:18:55;;;;;;;18.17;10.55;;;14.00;45.70;;;;;;5148986;27;45328;-51
2024/01/14 02:21:26;;;;;;;20.38;11.65;;;14.00;45.70;;;;;;5152021;27;45307;-51
2024/01/14 02:24:03;;;;;;;19.23;10.52;;;14.00;45.80;;;;;;5149664;27;45233;-51
2024/01/14 02:26:31;;;;;;;17.35;10.65;;;13.90;45.80;;;;;;5151478;27;45288;-50
2024/01/14 02:29:01;;;;;;;17.77;10.43;;;13.90;45.70;;;;;;5149697;27;45224;-50
2024/01/14 02:31:28;;;;;;;16.40;10.25;;;13.90;45.80;;;;;;5149762;27;45709;-50
2024/01/14 02:33:55;;;;;;;19.80;11.30;;;14.00;45.90;;;;;;5151183;27;46241;-51
2024/01/14 02:36:21;;;;;;;18.10;11.40;;;14.00;45.50;;;;;;5148050;27;45514;-51
2024/01/14 02:38:48;;;;;;;20.38;11.15;;;13.90;45.20;;;;;;5146671;27;45247;-50
2024/01/14 02:41:15;;;;;;;19.40;11.07;;;14.00;45.10;;;;;;5148220;27;45475;-51
2024/01/14 02:43:43;;;;;;;19.70;11.65;;;14.00;45.00;;;;;;5154174;27;45149;-50
2024/01/14 02:46:10;;;;;;;23.42;12.13;;;14.00;45.00;;;;;;5149407;27;45201;-51
2024/01/14 02:48:37;;;;;;;20.33;12.07;;;14.00;45.30;;;;;;5152283;27;45266;-50
2024/01/14 02:51:03;;;;;;;17.60;10.80;;;14.00;45.10;;;;;;5154075;27;45339;-50
2024/01/14 02:53:30;;;;;;;20.85;11.40;;;14.00;45.00;;;;;;5147167;27;47301;-50
2024/01/14 02:55:57;;;;;;;22.08;12.25;;;13.90;44.90;;;;;;5151833;27;45445;-51
2024/01/14 02:58:25;;;;;;;20.55;11.82;;;13.90;45.00;;;;;;5154127;27;45190;-50
2024/01/14 03:00:54;;;;;;;19.48;11.55;;;13.80;44.80;;;;;;5151081;27;45245;-50
2024/01/14 03:03:21;;;;;;;20.23;11.35;;;13.90;44.80;;;;;;5151222;27;48232;-50
2024/01/14 03:05:48;;;;;;;21.15;12.00;;;13.90;44.70;;;;;;5147371;27;45223;-50
2024/01/14 03:08:17;;;;;;;22.55;12.38;;;13.80;44.70;;;;;;5151353;27;45240;-50
2024/01/14 03:10:44;;;;;;;20.92;12.50;;;13.80;45.90;;;;;;5150419;27;45477;-50
2024/01/14 03:13:13;;;;;;;19.65;12.15;;;13.80;44.80;;;;;;5149041;27;46530;-50
2024/01/14 03:15:40;;;;;;;22.38;12.63;;;13.80;44.60;;;;;;5152913;27;46036;-50
2024/01/14 03:18:08;;;;;;;18.15;11.20;;;13.80;44.70;;;;;;5152435;27;45559;-50
2024/01/14 03:20:35;;;;;;;18.30;11.60;;;13.80;44.40;;;;;;5153864;27;45434;-51
2024/01/14 03:23:01;;;;;;;21.58;12.52;;;13.80;44.30;;;;;;5152408;27;45418;-51
2024/01/14 03:25:28;;;;;;;20.85;12.65;;;13.90;44.20;;;;;;5156659;27;45322;-51
2024/01/14 03:27:55;;;;;;;23.45;12.32;;;13.90;44.10;;;;;;5152183;27;45174;-51
2024/01/14 03:30:22;;;;;;;19.77;11.95;;;13.90;44.00;;;;;;5155362;27;45449;-50
2024/01/14 03:32:49;;;;;;;21.25;12.02;;;13.90;44.00;;;;;;5156312;27;45436;-50
2024/01/14 03:35:17;;;;;;;22.38;12.38;;;13.90;44.00;;;;;;5150806;27;45244;-50
2024/01/14 03:37:44;;;;;;;20.30;11.75;;;13.90;43.90;;;;;;5150395;27;45183;-50
2024/01/14 03:40:11;;;;;;;20.88;12.07;;;13.80;43.80;;;;;;5152300;27;46002;-50
2024/01/14 03:42:38;;;;;;;20.13;11.02;;;13.90;43.90;;;;;;5153127;27;45345;-50
2024/01/14 03:45:06;;;;;;;21.13;12.13;;;13.80;43.90;;;;;;5153070;27;45295;-50
2024/01/14 03:47:33;;;;;;;17.52;10.57;;;13.80;44.00;;;;;;5152918;27;45453;-51
2024/01/14 03:49:59;;;;;;;18.58;11.57;;;13.80;44.00;;;;;;5150513;27;45316;-51
2024/01/14 03:52:27;;;;;;;18.52;10.98;;;13.80;44.00;;;;;;5152982;27;47449;-51
2024/01/14 03:54:54;;;;;;;19.67;11.45;;;13.70;43.90;;;;;;5148935;27;45323;-51
2024/01/14 03:57:21;;;;;;;18.60;10.93;;;13.80;44.00;;;;;;5152003;27;45346;-51
2024/01/14 03:59:48;;;;;;;20.00;11.13;;;13.70;43.90;;;;;;5154323;27;45477;-52
2024/01/14 04:02:15;;;;;;;19.70;11.27;;;13.70;44.00;;;;;;5150654;27;45296;-50
2024/01/14 04:04:41;;;;;;;20.23;11.70;;;13.70;44.00;;;;;;5155015;27;45402;-50
2024/01/14 04:07:10;;;;;;;19.17;11.40;;;13.70;44.00;;;;;;5152049;27;45236;-51
2024/01/14 04:09:38;;;;;;;18.27;11.35;;;13.70;43.90;;;;;;5148741;27;45328;-51
2024/01/14 04:12:05;;;;;;;16.77;10.70;;;13.70;43.80;;;;;;5152131;27;46249;-51
2024/01/14 04:14:31;;;;;;;18.50;11.27;;;13.80;43.70;;;;;;5149910;27;45656;-51
2024/01/14 04:16:58;;;;;;;19.17;10.93;;;13.80;43.70;;;;;;5151277;27;45388;-51
2024/01/14 04:19:25;;;;;;;17.90;10.73;;;13.80;43.60;;;;;;5151975;27;45540;-51
2024/01/14 04:21:52;;;;;;;17.67;10.73;;;13.80;43.40;;;;;;5150806;27;47995;-51
2024/01/14 04:24:18;;;;;;;16.63;9.82;;;13.90;43.40;;;;;;5148094;27;45201;-51
2024/01/14 04:26:47;;;;;;;18.00;10.73;;;13.80;43.30;;;;;;5151225;27;45249;-50
2024/01/14 04:29:14;;;;;;;18.80;10.48;;;13.80;44.50;;;;;;5151795;27;45330;-50
2024/01/14 04:31:40;;;;;;;17.83;10.63;;;13.80;43.20;;;;;;5151022;27;45289;-51
2024/01/14 04:34:07;;;;;;;22.00;12.07;;;13.90;43.30;;;;;;5151362;27;45186;-51
2024/01/14 04:36:34;;;;;;;16.42;10.30;;;13.90;43.50;;;;;;5150638;27;45395;-51
2024/01/14 04:39:01;;;;;;;17.08;10.13;;;13.80;43.20;;;;;;5151295;27;45164;-51
2024/01/14 04:41:28;;;;;;;16.95;10.02;;;13.80;43.30;;;;;;5153666;27;46452;-51
2024/01/14 04:43:56;;;;;;;16.60;9.50;;;13.80;43.30;;;;;;5153920;27;45169;-51
2024/01/14 04:46:22;;;;;;;17.20;9.75;;;13.80;43.30;;;;;;5153329;27;45275;-51
2024/01/14 04:48:49;;;;;;;16.30;9.35;;;13.80;43.50;;;;;;5151266;27;45335;-52
2024/01/14 04:51:17;;;;;;;17.52;10.23;;;13.80;43.80;;;;;;5150823;27;46509;-51
2024/01/14 04:53:43;;;;;;;18.30;10.50;;;13.70;43.70;;;;;;5148138;27;45901;-51
2024/01/14 04:56:10;;;;;;;15.27;9.30;;;13.80;43.90;;;;;;5155130;27;45254;-51
2024/01/14 04:58:38;;;;;;;14.80;8.88;;;13.70;44.00;;;;;;5150151;27;45287;-51
2024/01/14 05:01:06;;;;;;;16.88;9.82;;;13.70;43.90;;;;;;5154397;27;47569;-51
2024/01/14 05:03:33;;;;;;;13.63;8.55;;;13.70;43.90;;;;;;5151269;27;45350;-51
2024/01/14 05:06:00;;;;;;;13.75;8.93;;;13.70;43.80;;;;;;5153079;27;45261;-51
2024/01/14 05:08:26;;;;;;;14.60;8.77;;;13.70;43.70;;;;;;5147737;27;45197;-51
2024/01/14 05:10:53;;;;;;;15.65;8.82;;;13.70;43.60;;;;;;5149719;27;47467;-51
2024/01/14 05:13:20;;;;;;;17.50;10.00;;;13.80;43.60;;;;;;5155024;27;45165;-50
2024/01/14 05:15:47;;;;;;;19.52;10.23;;;13.80;43.50;;;;;;5152510;27;45223;-51
2024/01/14 05:18:15;;;;;;;16.90;9.43;;;13.80;43.40;;;;;;5149238;27;45600;-52
2024/01/14 05:20:42;;;;;;;13.80;8.48;;;13.80;43.20;;;;;;5150724;27;45436;-51
2024/01/14 05:23:09;;;;;;;15.50;9.82;;;13.80;43.20;;;;;;5146302;27;45334;-51
2024/01/14 05:25:35;;;;;;;14.93;8.80;;;13.80;43.00;;;;;;5148842;27;45240;-51
2024/01/14 05:28:02;;;;;;;16.00;8.93;;;13.80;43.00;;;;;;5153955;27;45449;-51
2024/01/14 05:30:29;;;;;;;16.33;9.13;;;13.80;42.90;;;;;;5151774;27;46137;-51
2024/01/14 05:32:56;;;;;;;15.18;8.57;;;13.80;43.00;;;;;;5150711;27;46056;-51
2024/01/14 05:35:24;;;;;;;13.88;8.00;;;13.80;43.00;;;;;;5150749;27;45349;-52
2024/01/14 05:37:51;;;;;;;15.63;9.18;;;13.70;43.10;;;;;;5152449;27;45645;-51
2024/01/14 05:40:19;;;;;;;16.27;8.90;;;13.70;43.20;;;;;;5152164;27;46380;-51
2024/01/14 05:42:46;;;;;;;13.77;8.77;;;13.70;43.10;;;;;;5152284;27;45356;-51
2024/01/14 05:45:13;;;;;;;14.52;7.88;;;13.70;43.00;;;;;;5149877;27;45209;-51
2024/01/14 05:47:40;;;;;;;15.18;8.60;;;13.70;43.00;;;;;;5150693;27;45334;-51
2024/01/14 05:50:08;;;;;;;14.18;8.18;;;13.70;43.00;;;;;;5151122;27;46578;-51
2024/01/14 05:52:36;;;;;;;13.88;8.25;;;13.70;42.90;;;;;;5152547;27;45629;-51
2024/01/14 05:55:03;;;;;;;13.35;8.27;;;13.70;43.00;;;;;;5150892;27;45376;-51
2024/01/14 05:57:31;;;;;;;13.77;8.27;;;13.70;43.00;;;;;;5154298;27;45445;-51
2024/01/14 05:59:58;;;;;;;13.25;7.95;;;13.70;42.90;;;;;;5151873;27;47607;-51
2024/01/14 06:02:24;;;;;;;15.20;8.82;;;13.70;42.80;;;;;;5149679;27;45209;-51
2024/01/14 06:04:51;;;;;;;11.30;7.10;;;13.70;42.70;;;;;;5149274;27;45206;-50
2024/01/14 06:07:18;;;;;;;15.23;8.25;;;13.70;42.70;;;;;;5149329;27;45363;-51
2024/01/14 06:09:47;;;;;;;12.50;7.57;;;13.80;42.90;;;;;;5147269;27;45288;-50
2024/01/14 06:12:15;;;;;;;14.43;7.85;;;13.80;42.70;;;;;;5148925;27;45406;-51
2024/01/14 06:14:41;;;;;;;12.00;7.95;;;13.80;42.60;;;;;;5152558;27;45173;-50
2024/01/14 06:17:09;;;;;;;14.27;8.48;;;13.80;42.60;;;;;;5151723;27;45524;-50
2024/01/14 06:19:36;;;;;;;14.55;8.20;;;13.80;42.50;;;;;;5151883;27;45190;-50
2024/01/14 06:22:02;;;;;;;13.30;7.70;;;13.80;42.50;;;;;;5148523;27;45230;-51
2024/01/14 06:24:29;;;;;;;12.70;7.45;;;13.80;42.50;;;;;;5148902;27;45244;-50
2024/01/14 06:26:57;;;;;;;13.25;8.00;;;13.80;42.50;;;;;;5149621;27;45551;-50
2024/01/14 06:29:24;;;;;;;13.13;7.10;;;13.80;42.50;;;;;;5153066;27;46527;-51
2024/01/14 06:31:51;;;;;;;12.98;7.50;;;13.70;42.60;;;;;;5152548;27;45449;-50
2024/01/14 06:34:18;;;;;;;11.55;6.90;;;13.70;42.80;;;;;;5148369;27;45348;-50
2024/01/14 06:36:45;;;;;;;13.10;7.07;;;13.70;42.60;;;;;;5144214;27;45600;-51
2024/01/14 06:39:11;;;;;;;13.45;7.25;;;13.70;42.60;;;;;;5146591;27;45503;-50
2024/01/14 06:41:38;;;;;;;10.75;6.97;;;13.70;42.70;;;;;;5147707;27;45313;-50
2024/01/14 06:44:06;;;;;;;11.00;6.70;;;13.60;42.50;;;;;;5152513;27;45212;-50
2024/01/14 06:46:33;;;;;;;12.40;7.55;;;13.70;42.60;;;;;;5153342;27;45263;-50
2024/01/14 06:49:00;;;;;;;13.68;7.95;;;13.70;42.60;;;;;;5151521;27;45448;-50
2024/01/14 06:51:27;;;;;;;11.77;6.65;;;13.70;42.50;;;;;;5146962;27;45148;-51
2024/01/14 06:53:53;;;;;;;10.65;6.65;;;13.70;42.70;;;;;;5144268;27;45241;-51
2024/01/14 06:56:20;;;;;;;12.35;7.25;;;13.70;42.80;;;;;;5145666;27;45570;-51
2024/01/14 06:58:50;;;;;;;12.65;7.10;;;13.70;42.80;;;;;;5152348;27;46343;-50
2024/01/14 07:01:18;;;;;;;12.90;7.40;;;13.70;42.90;;;;;;5150493;27;45308;-51
2024/01/14 07:03:45;;;;;;;12.73;6.82;;;13.70;42.90;;;;;;5148819;27;45578;-50
2024/01/14 07:06:12;;;;;;;12.10;7.05;;;13.70;42.90;;;;;;5145844;27;45239;-50
2024/01/14 07:08:40;;;;;;;13.43;7.80;;;13.70;42.90;;;;;;5146838;27;47336;-50
2024/01/14 07:11:06;;;;;;;13.38;6.68;;;13.70;43.20;;;;;;5144903;27;45382;-51
2024/01/14 07:13:33;;;;;;;11.18;7.30;;;13.70;43.20;;;;;;5149052;27;45205;-50
2024/01/14 07:16:00;;;;;;;11.00;6.60;;;13.70;43.20;;;;;;5147726;27;45282;-50
2024/01/14 07:18:28;;;;;;;12.18;7.45;;;13.70;43.10;;;;;;5147666;27;48003;-51
2024/01/14 07:20:55;;;;;;;12.70;7.20;;;13.70;43.00;;;;;;5149422;27;45356;-50
2024/01/14 07:23:22;;;;;;;11.32;6.60;;;13.70;42.90;;;;;;5150081;27;45465;-50
2024/01/14 07:25:48;;;;;;;12.77;6.80;;;13.70;42.80;;;;;;5148911;27;45233;-51
2024/01/14 07:28:15;;;;;;;11.48;6.55;;;13.70;42.80;;;;;;5149652;27;45429;-50
2024/01/14 07:30:42;;;;;;;11.55;7.13;;;13.70;42.70;;;;;;5151142;27;45704;-51
2024/01/14 07:33:08;;;;;;;11.45;6.80;;;13.70;42.50;;;;;;5150473;27;45238;-51
2024/01/14 07:35:37;;;;;;;10.90;6.50;;;13.70;42.40;;;;;;5146186;27;45421;-50
2024/01/14 07:38:04;;;;;;;12.18;6.93;;;13.70;42.20;;;;;;5143214;27;46336;-51
2024/01/14 07:40:30;;;;;;;11.45;6.30;;;13.70;42.20;;;;;;5145397;27;45366;-51
2024/01/14 07:42:57;;;;;;;12.35;6.72;;;13.70;42.10;;;;;;5150300;27;45371;-51
2024/01/14 07:45:24;;;;;;;10.25;6.03;;;13.70;41.80;;;;;;5153084;27;45210;-51
2024/01/14 07:47:51;;;;;;;11.43;6.50;;;13.70;41.80;;;;;;5148092;27;47040;-51
2024/01/14 07:50:17;;;;;;;10.07;6.10;;;13.70;41.80;;;;;;5147048;27;45282;-52
2024/01/14 07:52:46;;;;;;;8.60;5.55;;;13.70;41.80;;;;;;5148277;27;45392;-51
2024/01/14 07:55:13;;;;;;;11.05;6.32;;;13.70;41.80;;;;;;5149649;27;45155;-51
2024/01/14 07:57:39;;;;;;;8.15;5.75;;;13.70;41.80;;;;;;5144494;27;46289;-51
2024/01/14 08:00:07;;;;;;;11.07;6.50;;;13.70;41.70;;;;;;5149573;27;45247;-51
2024/01/14 08:02:34;;;;;;;11.15;6.38;;;13.80;41.70;;;;;;5150241;27;46044;-51
2024/01/14 08:05:01;;;;;;;9.48;5.88;;;13.80;41.80;;;;;;5150433;27;45365;-51
2024/01/14 08:07:28;;;;;;;10.27;5.93;;;13.80;41.80;;;;;;5157089;27;45356;-51
2024/01/14 08:09:56;;;;;;;9.70;5.30;;;13.70;41.60;;;;;;5149995;27;45168;-51
2024/01/14 08:12:23;;;;;;;8.88;5.60;;;13.80;41.70;;;;;;5152310;27;45287;-51
2024/01/14 08:14:50;;;;;;;8.70;5.28;;;13.70;41.70;;;;;;5155799;27;45310;-51
2024/01/14 08:17:17;;;;;;;8.35;5.22;;;13.70;41.70;;;;;;5149281;27;45432;-50
2024/01/14 08:19:44;;;;;;;7.80;4.55;;;13.80;41.80;;;;;;5150741;27;45273;-50
2024/01/14 08:22:11;;;;;;;10.25;5.45;;;13.90;41.40;;;;;;5152320;27;45346;-50
2024/01/14 08:24:37;;;;;;;8.50;4.93;;;13.90;41.20;;;;;;5149846;27;45289;-51
2024/01/14 08:27:06;;;;;;;8.23;4.90;;;14.00;41.10;;;;;;5149811;27;46565;-50
2024/01/14 08:29:32;;;;;;;9.15;5.43;;;14.00;41.10;;;;;;5152079;27;45672;-50
2024/01/14 08:31:59;;;;;;;8.63;4.85;;;14.00;41.10;;;;;;5148203;27;45252;-50
2024/01/14 08:34:26;;;;;;;8.50;4.95;;;14.00;41.00;;;;;;5149311;27;45405;-51
2024/01/14 08:36:53;;;;;;;7.57;4.82;;;14.00;40.90;;;;;;5151517;27;46206;-50
2024/01/14 08:39:20;;;;;;;7.45;5.03;;;14.00;41.10;;;;;;5147883;27;45314;-50
2024/01/14 08:41:47;;;;;;;9.05;5.15;;;14.00;41.00;;;;;;5150126;27;45388;-51
2024/01/14 08:44:15;;;;;;;7.70;4.80;;;14.00;41.10;;;;;;5150439;27;45598;-50
2024/01/14 08:46:44;;;;;;;7.28;4.53;;;13.90;41.00;;;;;;5149689;27;46603;-50
2024/01/14 08:49:11;;;;;;;7.47;4.90;;;13.90;42.40;;;;;;5151834;27;45179;-50
2024/01/14 08:51:39;;;;;;;8.13;4.70;;;13.90;41.10;;;;;;5150934;27;45258;-51
2024/01/14 08:54:06;;;;;;;7.03;4.53;;;13.90;41.10;;;;;;5150435;27;45822;-51
2024/01/14 08:56:33;;;;;;;6.93;4.75;;;13.90;41.10;;;;;;5153471;27;45302;-50
2024/01/14 08:59:00;;;;;;;6.63;4.10;;;13.90;40.90;;;;;;5149071;27;45331;-50
2024/01/14 09:01:28;;;;;;;6.82;4.28;;;13.90;40.90;;;;;;5152405;27;45261;-50
2024/01/14 09:03:55;;;;;;;6.95;3.95;;;13.90;40.90;;;;;;5150325;27;45432;-50
2024/01/14 09:06:22;;;;;;;10.10;5.07;;;13.90;40.90;;;;;;5148538;27;48027;-50
2024/01/14 09:08:49;;;;;;;6.85;4.05;;;14.00;40.90;;;;;;5150665;27;45847;-50
2024/01/14 09:11:16;;;;;;;7.57;4.40;;;13.90;40.90;;;;;;5151481;27;45334;-51
2024/01/14 09:13:45;;;;;;;6.95;4.00;;;13.90;41.10;;;;;;5150826;27;45568;-51
2024/01/14 09:16:12;;;;;;;7.10;4.22;;;13.80;41.20;;;;;;5149430;27;45708;-51
2024/01/14 09:18:40;;;;;;;6.22;3.90;;;13.80;41.20;;;;;;5155082;27;45279;-51
2024/01/14 09:21:07;;;;;;;5.47;3.70;;;13.80;41.20;;;;;;5155604;27;45175;-50
2024/01/14 09:23:34;;;;;;;6.63;4.10;;;13.80;41.20;;;;;;5151078;27;45219;-50
2024/01/14 09:26:01;;;;;;;5.82;4.03;;;13.80;41.20;;;;;;5153889;27;45405;-51
2024/01/14 09:28:29;;;;;;;6.55;4.07;;;13.80;41.10;;;;;;5151444;27;45279;-51
2024/01/14 09:30:56;;;;;;;6.32;4.07;;;13.80;41.20;;;;;;5151434;27;45227;-51
2024/01/14 09:33:23;;;;;;;6.53;3.97;;;13.80;41.20;;;;;;5148956;27;45129;-51
2024/01/14 09:35:51;;;;;;;5.93;3.55;;;13.80;41.20;;;;;;5149929;27;46561;-51
2024/01/14 09:38:17;;;;;;;6.80;3.85;;;13.70;41.10;;;;;;5150481;27;45149;-50
2024/01/14 09:40:44;;;;;;;6.13;3.67;;;13.80;41.20;;;;;;5151847;27;45503;-51
2024/01/14 09:43:12;;;;;;;6.55;3.95;;;13.80;41.30;;;;;;5151721;27;45154;-50
2024/01/14 09:45:40;;;;;;;5.90;3.65;;;13.70;41.20;;;;;;5152814;27;48485;-51
2024/01/14 09:48:08;;;;;;;6.05;3.70;;;13.80;41.20;;;;;;5153024;27;45192;-50
2024/01/14 09:50:36;;;;;;;5.65;3.83;;;13.80;41.10;;;;;;5152905;27;45232;-51
2024/01/14 09:53:09;;;;;;;5.30;3.35;;;13.80;41.30;;;;;;5150422;27;45628;-51
2024/01/14 09:55:36;;;;;;;6.20;3.45;;;13.80;41.40;;;;;;5153320;27;45252;-51
2024/01/14 09:58:06;;;;;;;5.22;3.45;;;13.90;41.80;;;;;;5149574;27;45213;-51
2024/01/14 10:00:38;;;;;;;7.00;3.80;;;13.80;41.60;;;;;;5149911;27;45191;-51
2024/01/14 10:03:05;;;;;;;6.38;3.95;;;13.80;41.60;;;;;;5151120;27;45119;-51
2024/01/14 10:05:32;;;;;;;5.82;3.65;;;13.80;41.60;;;;;;5148996;27;46030;-51
2024/01/14 10:07:59;;;;;;;6.88;3.80;;;13.80;41.60;;;;;;5148970;27;45164;-51
2024/01/14 10:10:28;;;;;;;5.10;3.75;;;13.70;41.60;;;;;;5151335;27;45319;-51
2024/01/14 10:12:55;;;;;;;6.57;3.80;;;13.80;41.70;;;;;;5153702;27;45188;-51
2024/01/14 10:15:22;;;;;;;5.85;3.50;;;13.70;41.60;;;;;;5147728;27;46522;-51
2024/01/14 10:17:49;;;;;;;6.40;3.78;;;13.70;41.60;;;;;;5147662;27;45369;-50
2024/01/14 10:20:19;;;;;;;6.07;3.47;;;13.70;41.60;;;;;;5150158;27;45314;-51
2024/01/14 10:22:47;;;;;;;7.20;3.30;;;13.70;41.50;;;;;;5152859;27;45263;-51
2024/01/14 10:25:13;;;;;;;6.82;4.00;;;13.70;41.60;;;;;;5150822;27;46228;-50
2024/01/14 10:27:43;;;;;;;6.70;3.78;;;13.70;41.50;;;;;;5148459;27;45242;-51
2024/01/14 10:30:11;;;;;;;6.32;3.75;;;13.70;41.40;;;;;;5151686;27;45243;-51
2024/01/14 10:32:38;;;;;;;7.30;3.88;;;13.70;41.40;;;;;;5150205;27;45499;-51
2024/01/14 10:35:11;;;;;;;6.63;3.53;;;13.70;41.30;;;;;;5152343;27;45552;-51
2024/01/14 10:37:37;;;;;;;5.32;3.45;;;13.70;41.10;;;;;;5146291;27;45366;-50
2024/01/14 10:40:08;;;;;;;5.95;3.58;;;13.70;41.10;;;;;;5146874;27;45346;-51
2024/01/14 10:42:36;;;;;;;5.40;3.60;;;13.70;41.20;;;;;;5151463;27;45404;-51
2024/01/14 10:45:05;;;;;;;5.78;3.35;;;13.80;41.20;;;;;;5155110;27;46517;-51
2024/01/14 10:47:34;;;;;;;5.57;3.22;;;13.70;41.00;;;;;;5152337;27;45328;-51
2024/01/14 10:50:01;;;;;;;5.45;3.47;;;13.80;41.00;;;;;;5150762;27;45185;-51
2024/01/14 10:52:33;;;;;;;6.22;3.60;;;13.80;40.90;;;;;;5149056;27;45488;-51
2024/01/14 10:55:10;;;;;;;7.85;4.03;;;13.80;40.90;;;;;;5147547;27;45237;-51
2024/01/14 10:57:38;;;;;;;5.45;3.50;;;13.80;40.90;;;;;;5147500;27;45448;-51
2024/01/14 11:00:08;;;;;;;5.55;3.55;;;13.80;40.90;;;;;;5150493;27;45411;-51
2024/01/14 11:02:36;;;;;;;6.68;4.03;;;13.80;40.90;;;;;;5150926;27;45303;-50
2024/01/14 11:05:05;;;;;;;5.80;3.38;;;13.70;41.00;;;;;;5148244;27;48787;-51
2024/01/14 11:07:34;;;;;;;7.70;4.25;;;13.70;41.10;;;;;;5147300;27;45519;-52
2024/01/14 11:10:02;;;;;;;6.35;3.42;;;13.70;41.10;;;;;;5153105;27;45153;-51
2024/01/14 11:12:36;;;;;;;6.88;4.07;;;13.80;41.10;;;;;;5151937;27;45441;-51
2024/01/14 11:15:09;;;;;;;6.63;3.85;;;13.70;41.00;;;;;;5150014;27;45303;-51
2024/01/14 11:17:46;;;;;;;6.90;3.30;;;13.70;41.10;;;;;;5149460;27;45329;-51
2024/01/14 11:20:17;;;;;;;4.57;3.25;;;13.70;41.10;;;;;;5153143;27;45503;-50
2024/01/14 11:22:44;;;;;;;6.75;3.55;;;13.70;41.10;;;;;;5147756;27;45456;-51
2024/01/14 11:25:16;;;;;;;6.60;3.78;;;13.70;41.10;;;;;;5146999;27;47441;-50
2024/01/14 11:27:43;;;;;;;5.60;3.38;;;13.70;41.10;;;;;;5151672;27;45194;-50
2024/01/14 11:30:17;;;;;;;6.18;3.17;;;13.70;41.10;;;;;;5149691;27;45190;-51
2024/01/14 11:32:44;;;;;;;4.80;3.10;;;13.70;41.10;;;;;;5148877;27;45390;-51
2024/01/14 11:35:11;;;;;;;7.45;3.35;;;13.70;41.00;;;;;;5147826;27;47097;-50
2024/01/14 11:37:38;;;;;;;6.75;3.13;;;13.80;41.10;;;;;;5148142;27;45214;-51
2024/01/14 11:40:16;;;;;;;4.93;3.10;;;13.70;41.10;;;;;;5150395;27;45435;-51
2024/01/14 11:42:50;;;;;;;4.05;2.95;;;13.80;41.10;;;;;;5151628;27;45180;-51
2024/01/14 11:45:34;;;;;;;6.18;3.53;;;13.80;41.00;;;;;;5152129;27;46433;-51
2024/01/14 11:48:04;;;;;;;4.30;2.63;;;13.80;41.00;;;;;;5153405;27;45336;-51
2024/01/14 11:50:32;;;;;;;4.60;3.03;;;13.80;41.00;;;;;;5153845;27;45281;-50
2024/01/14 11:53:00;;;;;;;4.80;3.05;;;13.80;41.00;;;;;;5150569;27;45255;-50
2024/01/14 11:55:29;;;;;;;4.38;3.03;;;13.80;41.00;;;;;;5156028;27;46624;-51
2024/01/14 11:57:56;;;;;;;4.95;2.70;;;13.70;41.00;;;;;;5154798;27;45391;-51
2024/01/14 12:00:24;;;;;;;4.22;2.78;;;13.80;41.30;;;;;;5153020;27;45154;-51
2024/01/14 12:03:05;;;;;;;6.50;3.75;;;13.70;41.30;;;;;;5155302;27;45469;-51
2024/01/14 12:05:32;;;;;;;4.57;3.13;;;13.80;41.40;;;;;;5155540;27;46295;-51
2024/01/14 12:08:00;;;;;;;4.88;2.88;;;13.70;41.50;;;;;;5153055;27;45233;-51
2024/01/14 12:10:31;;;;;;;4.65;2.85;;;13.70;41.50;;;;;;5153522;27;45214;-51
2024/01/14 12:12:59;;;;;;;5.75;3.15;;;13.70;41.50;;;;;;5156130;27;45271;-51
2024/01/14 12:15:27;;;;;;;4.65;2.60;;;13.70;41.40;;;;;;5150248;27;47304;-50
2024/01/14 12:17:53;;;;;;;4.97;3.08;;;13.70;42.60;;;;;;5151362;27;46304;-50
2024/01/14 12:20:23;;;;;;;6.15;3.63;;;13.70;41.40;;;;;;5152130;27;45215;-51
2024/01/14 12:22:56;;;;;;;5.05;3.17;;;13.70;41.30;;;;;;5153755;27;45179;-51
2024/01/14 12:25:23;;;;;;;4.40;2.92;;;13.70;41.30;;;;;;5152024;27;47994;-51
2024/01/14 12:27:50;;;;;;;4.25;2.88;;;13.70;41.20;;;;;;5156604;27;45393;-51
2024/01/14 12:30:31;;;;;;;5.20;3.03;;;13.70;41.10;;;;;;5152589;27;45309;-51
2024/01/14 12:32:58;;;;;;;5.25;3.30;;;13.70;41.10;;;;;;5155126;27;45385;-51
2024/01/14 12:35:32;;;;;;;5.53;3.47;;;13.80;41.10;;;;;;5149854;27;47853;-51
2024/01/14 12:37:59;;;;;;;5.47;3.22;;;13.80;40.80;;;;;;5151061;27;46103;-51